sensor_id;sensor_type;location;lat;lon;timestamp;temperature;humidity
10411;DHT22;5251;52.112;8.606;2022-09-29T00:01:22;9.50;99.90
10411;DHT22;5251;52.112;8.606;2022-09-29T00:03:48;9.60;99.90
10411;DHT22;5251;52.112;8.606;2022-09-29T00:06:15;9.60;99.90
10411;DHT22;5251;52.112;8.606;2022-09-29T00:08:41;9.60;99.90
10411;DHT22;5251;52.112;8.606;2022-09-29T00:11:12;9.60;99.90
10411;DHT22;5251;52.112;8.606;2022-09-29T00:13:37;9.60;99.90
10411;DHT22;5251;52.112;8.606;2022-09-29T00:16:03;9.70;99.90
10411;DHT22;5251;52.112;8.606;2022-09-29T00:18:30;9.70;99.90
10411;DHT22;5251;52.112;8.606;2022-09-29T00:21:08;9.70;99.90
10411;DHT22;5251;52.112;8.606;2022-09-29T00:23:34;9.60;99.90
10411;DHT22;5251;52.112;8.606;2022-09-29T00:28:41;9.60;99.90
10411;DHT22;5251;52.112;8.606;2022-09-29T00:31:10;9.60;99.90
10411;DHT22;5251;52.112;8.606;2022-09-29T00:33:36;9.50;99.90
10411;DHT22;5251;52.112;8.606;2022-09-29T00:36:05;9.50;99.90
10411;DHT22;5251;52.112;8.606;2022-09-29T00:38:31;9.50;99.90
10411;DHT22;5251;52.112;8.606;2022-09-29T00:40:56;9.50;99.90
10411;DHT22;5251;52.112;8.606;2022-09-29T00:43:45;9.50;99.90
10411;DHT22;5251;52.112;8.606;2022-09-29T00:46:10;9.40;99.90
10411;DHT22;5251;52.112;8.606;2022-09-29T00:48:37;9.40;99.90
10411;DHT22;5251;52.112;8.606;2022-09-29T00:51:03;9.40;99.90
10411;DHT22;5251;52.112;8.606;2022-09-29T00:53:28;9.40;99.90
10411;DHT22;5251;52.112;8.606;2022-09-29T00:56:13;9.40;99.90
10411;DHT22;5251;52.112;8.606;2022-09-29T00:59:04;9.30;99.90
10411;DHT22;5251;52.112;8.606;2022-09-29T01:01:31;9.30;99.90
10411;DHT22;5251;52.112;8.606;2022-09-29T01:04:03;9.30;99.90
10411;DHT22;5251;52.112;8.606;2022-09-29T01:06:44;9.20;99.90
10411;DHT22;5251;52.112;8.606;2022-09-29T01:09:17;9.20;99.90
10411;DHT22;5251;52.112;8.606;2022-09-29T01:11:43;9.20;99.90
10411;DHT22;5251;52.112;8.606;2022-09-29T01:14:10;9.20;99.90
10411;DHT22;5251;52.112;8.606;2022-09-29T01:16:37;9.20;99.90
10411;DHT22;5251;52.112;8.606;2022-09-29T01:19:10;9.20;99.90
10411;DHT22;5251;52.112;8.606;2022-09-29T01:21:55;9.20;99.90
10411;DHT22;5251;52.112;8.606;2022-09-29T01:32:36;9.30;99.90
10411;DHT22;5251;52.112;8.606;2022-09-29T01:38:13;9.40;99.90
10411;DHT22;5251;52.112;8.606;2022-09-29T01:43:34;9.40;99.90
10411;DHT22;5251;52.112;8.606;2022-09-29T01:46:10;9.40;99.90
10411;DHT22;5251;52.112;8.606;2022-09-29T01:48:41;9.50;99.90
10411;DHT22;5251;52.112;8.606;2022-09-29T01:51:17;9.60;99.90
10411;DHT22;5251;52.112;8.606;2022-09-29T01:53:48;9.50;99.90
10411;DHT22;5251;52.112;8.606;2022-09-29T01:56:20;9.60;99.90
10411;DHT22;5251;52.112;8.606;2022-09-29T01:58:52;9.60;99.90
10411;DHT22;5251;52.112;8.606;2022-09-29T02:01:20;9.60;99.90
10411;DHT22;5251;52.112;8.606;2022-09-29T02:03:52;9.60;99.90
10411;DHT22;5251;52.112;8.606;2022-09-29T02:06:23;9.70;99.90
10411;DHT22;5251;52.112;8.606;2022-09-29T02:08:55;9.70;99.90
10411;DHT22;5251;52.112;8.606;2022-09-29T02:11:21;9.80;99.90
10411;DHT22;5251;52.112;8.606;2022-09-29T02:14:11;9.80;99.90
10411;DHT22;5251;52.112;8.606;2022-09-29T02:16:47;9.80;99.90
10411;DHT22;5251;52.112;8.606;2022-09-29T02:19:20;9.80;99.90
10411;DHT22;5251;52.112;8.606;2022-09-29T02:21:46;9.90;99.90
10411;DHT22;5251;52.112;8.606;2022-09-29T02:24:12;9.90;99.90
10411;DHT22;5251;52.112;8.606;2022-09-29T02:26:38;9.90;99.90
10411;DHT22;5251;52.112;8.606;2022-09-29T02:29:06;10.00;99.90
10411;DHT22;5251;52.112;8.606;2022-09-29T02:31:33;10.00;99.90
10411;DHT22;5251;52.112;8.606;2022-09-29T02:34:01;10.10;99.90
10411;DHT22;5251;52.112;8.606;2022-09-29T02:36:48;10.10;99.90
10411;DHT22;5251;52.112;8.606;2022-09-29T02:56:12;10.30;99.90
10411;DHT22;5251;52.112;8.606;2022-09-29T02:59:00;10.30;99.90
10411;DHT22;5251;52.112;8.606;2022-09-29T03:01:52;10.40;99.90
10411;DHT22;5251;52.112;8.606;2022-09-29T03:04:20;10.40;99.90
10411;DHT22;5251;52.112;8.606;2022-09-29T03:06:46;10.50;99.90
10411;DHT22;5251;52.112;8.606;2022-09-29T03:09:11;10.50;99.90
10411;DHT22;5251;52.112;8.606;2022-09-29T03:11:37;10.50;99.90
10411;DHT22;5251;52.112;8.606;2022-09-29T03:14:03;10.50;99.90
10411;DHT22;5251;52.112;8.606;2022-09-29T03:16:31;10.50;99.90
10411;DHT22;5251;52.112;8.606;2022-09-29T03:18:56;10.60;99.90
10411;DHT22;5251;52.112;8.606;2022-09-29T03:21:22;10.60;99.90
10411;DHT22;5251;52.112;8.606;2022-09-29T03:23:48;10.60;99.90
10411;DHT22;5251;52.112;8.606;2022-09-29T03:26:14;10.50;99.90
10411;DHT22;5251;52.112;8.606;2022-09-29T03:28:39;10.60;99.90
10411;DHT22;5251;52.112;8.606;2022-09-29T03:31:06;10.60;99.90
10411;DHT22;5251;52.112;8.606;2022-09-29T03:33:32;10.60;99.90
10411;DHT22;5251;52.112;8.606;2022-09-29T03:35:57;10.70;99.90
10411;DHT22;5251;52.112;8.606;2022-09-29T03:38:23;10.70;99.90
10411;DHT22;5251;52.112;8.606;2022-09-29T03:40:48;10.60;99.90
10411;DHT22;5251;52.112;8.606;2022-09-29T03:43:14;10.60;99.90
10411;DHT22;5251;52.112;8.606;2022-09-29T03:45:49;10.60;99.90
10411;DHT22;5251;52.112;8.606;2022-09-29T03:48:16;10.50;99.90
10411;DHT22;5251;52.112;8.606;2022-09-29T03:50:41;10.50;99.90
10411;DHT22;5251;52.112;8.606;2022-09-29T03:53:07;10.50;99.90
10411;DHT22;5251;52.112;8.606;2022-09-29T03:55:33;10.40;99.90
10411;DHT22;5251;52.112;8.606;2022-09-29T03:57:58;10.40;99.90
10411;DHT22;5251;52.112;8.606;2022-09-29T04:00:24;10.30;99.90
10411;DHT22;5251;52.112;8.606;2022-09-29T04:02:49;10.30;99.90
10411;DHT22;5251;52.112;8.606;2022-09-29T04:05:15;10.10;99.90
10411;DHT22;5251;52.112;8.606;2022-09-29T04:07:42;10.10;99.90
10411;DHT22;5251;52.112;8.606;2022-09-29T04:10:08;10.10;99.90
10411;DHT22;5251;52.112;8.606;2022-09-29T04:12:34;10.00;99.90
10411;DHT22;5251;52.112;8.606;2022-09-29T04:14:59;9.90;99.90
10411;DHT22;5251;52.112;8.606;2022-09-29T04:17:25;9.90;99.90
10411;DHT22;5251;52.112;8.606;2022-09-29T04:19:51;9.90;99.90
10411;DHT22;5251;52.112;8.606;2022-09-29T04:22:16;9.80;99.90
10411;DHT22;5251;52.112;8.606;2022-09-29T04:24:43;9.70;99.90
10411;DHT22;5251;52.112;8.606;2022-09-29T04:27:09;9.70;99.90
10411;DHT22;5251;52.112;8.606;2022-09-29T04:29:35;9.60;99.90
10411;DHT22;5251;52.112;8.606;2022-09-29T04:32:00;9.60;99.90
10411;DHT22;5251;52.112;8.606;2022-09-29T04:34:26;9.50;99.90
10411;DHT22;5251;52.112;8.606;2022-09-29T04:36:51;9.50;99.90
10411;DHT22;5251;52.112;8.606;2022-09-29T04:39:17;9.40;99.90
10411;DHT22;5251;52.112;8.606;2022-09-29T04:41:43;9.40;99.90
10411;DHT22;5251;52.112;8.606;2022-09-29T04:44:09;9.40;99.90
10411;DHT22;5251;52.112;8.606;2022-09-29T04:46:35;9.30;99.90
10411;DHT22;5251;52.112;8.606;2022-09-29T04:49:00;9.30;99.90
10411;DHT22;5251;52.112;8.606;2022-09-29T04:51:26;9.20;99.90
10411;DHT22;5251;52.112;8.606;2022-09-29T04:53:51;9.20;99.90
10411;DHT22;5251;52.112;8.606;2022-09-29T04:56:17;9.10;99.90
10411;DHT22;5251;52.112;8.606;2022-09-29T04:58:43;9.10;99.90
10411;DHT22;5251;52.112;8.606;2022-09-29T05:01:11;9.10;99.90
10411;DHT22;5251;52.112;8.606;2022-09-29T05:03:40;9.10;99.90
10411;DHT22;5251;52.112;8.606;2022-09-29T05:06:06;9.00;99.90
10411;DHT22;5251;52.112;8.606;2022-09-29T05:08:33;9.00;99.90
10411;DHT22;5251;52.112;8.606;2022-09-29T05:11:06;9.00;99.90
10411;DHT22;5251;52.112;8.606;2022-09-29T05:13:32;9.00;99.90
10411;DHT22;5251;52.112;8.606;2022-09-29T05:15:58;8.90;99.90
10411;DHT22;5251;52.112;8.606;2022-09-29T05:18:24;8.90;99.90
10411;DHT22;5251;52.112;8.606;2022-09-29T05:20:50;9.00;99.90
10411;DHT22;5251;52.112;8.606;2022-09-29T05:23:15;9.00;99.90
10411;DHT22;5251;52.112;8.606;2022-09-29T05:25:41;9.00;99.90
10411;DHT22;5251;52.112;8.606;2022-09-29T05:28:09;8.90;99.90
10411;DHT22;5251;52.112;8.606;2022-09-29T05:30:35;9.00;99.90
10411;DHT22;5251;52.112;8.606;2022-09-29T05:33:01;9.00;99.90
10411;DHT22;5251;52.112;8.606;2022-09-29T05:35:26;9.00;99.90
10411;DHT22;5251;52.112;8.606;2022-09-29T05:37:52;9.00;99.90
10411;DHT22;5251;52.112;8.606;2022-09-29T05:40:18;9.00;99.90
10411;DHT22;5251;52.112;8.606;2022-09-29T05:42:44;9.00;99.90
10411;DHT22;5251;52.112;8.606;2022-09-29T05:45:09;9.00;99.90
10411;DHT22;5251;52.112;8.606;2022-09-29T05:47:40;9.00;99.90
10411;DHT22;5251;52.112;8.606;2022-09-29T05:50:07;9.00;99.90
10411;DHT22;5251;52.112;8.606;2022-09-29T05:52:32;9.00;99.90
10411;DHT22;5251;52.112;8.606;2022-09-29T05:54:58;9.00;99.90
10411;DHT22;5251;52.112;8.606;2022-09-29T05:57:24;9.00;99.90
10411;DHT22;5251;52.112;8.606;2022-09-29T05:59:49;9.00;99.90
10411;DHT22;5251;52.112;8.606;2022-09-29T06:02:15;9.00;99.90
10411;DHT22;5251;52.112;8.606;2022-09-29T06:04:41;9.00;99.90
10411;DHT22;5251;52.112;8.606;2022-09-29T06:07:07;8.90;99.90
10411;DHT22;5251;52.112;8.606;2022-09-29T06:09:33;9.00;99.90
10411;DHT22;5251;52.112;8.606;2022-09-29T06:12:01;9.00;99.90
10411;DHT22;5251;52.112;8.606;2022-09-29T06:14:26;9.00;99.90
10411;DHT22;5251;52.112;8.606;2022-09-29T06:16:52;9.10;99.90
10411;DHT22;5251;52.112;8.606;2022-09-29T06:19:18;9.10;99.90
10411;DHT22;5251;52.112;8.606;2022-09-29T06:21:44;9.20;99.90
10411;DHT22;5251;52.112;8.606;2022-09-29T06:24:10;9.20;99.90
10411;DHT22;5251;52.112;8.606;2022-09-29T06:26:35;9.30;99.90
10411;DHT22;5251;52.112;8.606;2022-09-29T06:29:01;9.40;99.90
10411;DHT22;5251;52.112;8.606;2022-09-29T06:31:28;9.40;99.90
10411;DHT22;5251;52.112;8.606;2022-09-29T06:34:02;9.50;99.90
10411;DHT22;5251;52.112;8.606;2022-09-29T06:36:40;9.70;99.90
10411;DHT22;5251;52.112;8.606;2022-09-29T06:39:25;9.80;99.90
10411;DHT22;5251;52.112;8.606;2022-09-29T06:41:50;9.90;99.90
10411;DHT22;5251;52.112;8.606;2022-09-29T06:44:19;10.10;99.90
10411;DHT22;5251;52.112;8.606;2022-09-29T06:46:45;10.20;99.90
10411;DHT22;5251;52.112;8.606;2022-09-29T06:49:12;10.30;99.90
10411;DHT22;5251;52.112;8.606;2022-09-29T06:51:38;10.50;99.90
10411;DHT22;5251;52.112;8.606;2022-09-29T06:54:04;10.50;99.90
10411;DHT22;5251;52.112;8.606;2022-09-29T06:56:29;10.70;99.90
10411;DHT22;5251;52.112;8.606;2022-09-29T06:58:55;10.80;99.90
10411;DHT22;5251;52.112;8.606;2022-09-29T07:01:21;10.90;99.90
10411;DHT22;5251;52.112;8.606;2022-09-29T07:03:46;10.90;99.90
10411;DHT22;5251;52.112;8.606;2022-09-29T07:06:12;11.10;99.90
10411;DHT22;5251;52.112;8.606;2022-09-29T07:08:38;11.10;99.90
10411;DHT22;5251;52.112;8.606;2022-09-29T07:11:08;11.20;99.90
10411;DHT22;5251;52.112;8.606;2022-09-29T07:13:34;11.30;99.90
10411;DHT22;5251;52.112;8.606;2022-09-29T07:16:08;11.40;99.90
10411;DHT22;5251;52.112;8.606;2022-09-29T07:18:35;11.40;99.90
10411;DHT22;5251;52.112;8.606;2022-09-29T07:21:03;11.50;99.90
10411;DHT22;5251;52.112;8.606;2022-09-29T07:23:28;11.50;99.90
10411;DHT22;5251;52.112;8.606;2022-09-29T07:25:54;11.50;99.90
10411;DHT22;5251;52.112;8.606;2022-09-29T07:28:20;11.60;99.90
10411;DHT22;5251;52.112;8.606;2022-09-29T07:30:45;11.60;99.90
10411;DHT22;5251;52.112;8.606;2022-09-29T07:33:11;11.60;99.90
10411;DHT22;5251;52.112;8.606;2022-09-29T07:35:36;11.70;99.90
10411;DHT22;5251;52.112;8.606;2022-09-29T07:38:02;11.70;99.90
10411;DHT22;5251;52.112;8.606;2022-09-29T07:40:27;11.70;99.90
10411;DHT22;5251;52.112;8.606;2022-09-29T07:42:53;11.70;99.90
10411;DHT22;5251;52.112;8.606;2022-09-29T07:45:19;11.80;99.90
10411;DHT22;5251;52.112;8.606;2022-09-29T07:47:45;11.80;99.90
10411;DHT22;5251;52.112;8.606;2022-09-29T07:50:11;11.80;99.90
10411;DHT22;5251;52.112;8.606;2022-09-29T07:52:37;11.80;99.90
10411;DHT22;5251;52.112;8.606;2022-09-29T07:55:03;11.80;99.90
10411;DHT22;5251;52.112;8.606;2022-09-29T07:57:29;11.90;99.90
10411;DHT22;5251;52.112;8.606;2022-09-29T07:59:55;11.80;99.90
10411;DHT22;5251;52.112;8.606;2022-09-29T08:02:23;11.90;99.90
10411;DHT22;5251;52.112;8.606;2022-09-29T08:04:49;12.00;99.90
10411;DHT22;5251;52.112;8.606;2022-09-29T08:07:15;12.00;99.90
10411;DHT22;5251;52.112;8.606;2022-09-29T08:09:40;12.10;99.90
10411;DHT22;5251;52.112;8.606;2022-09-29T08:12:07;12.10;99.90
10411;DHT22;5251;52.112;8.606;2022-09-29T08:14:33;12.20;99.90
10411;DHT22;5251;52.112;8.606;2022-09-29T08:16:59;12.20;99.90
10411;DHT22;5251;52.112;8.606;2022-09-29T08:19:24;12.20;99.90
10411;DHT22;5251;52.112;8.606;2022-09-29T08:21:51;12.30;99.90
10411;DHT22;5251;52.112;8.606;2022-09-29T08:24:17;12.30;99.90
10411;DHT22;5251;52.112;8.606;2022-09-29T08:26:43;12.30;99.90
10411;DHT22;5251;52.112;8.606;2022-09-29T08:29:09;12.40;99.90
10411;DHT22;5251;52.112;8.606;2022-09-29T08:31:35;12.40;99.90
10411;DHT22;5251;52.112;8.606;2022-09-29T08:34:05;12.40;99.90
10411;DHT22;5251;52.112;8.606;2022-09-29T08:36:30;12.50;99.90
10411;DHT22;5251;52.112;8.606;2022-09-29T08:38:56;12.50;99.90
10411;DHT22;5251;52.112;8.606;2022-09-29T08:47:20;12.60;99.90
10411;DHT22;5251;52.112;8.606;2022-09-29T08:52:26;12.70;99.90
10411;DHT22;5251;52.112;8.606;2022-09-29T08:54:58;12.80;99.90
10411;DHT22;5251;52.112;8.606;2022-09-29T08:57:25;12.80;99.90
10411;DHT22;5251;52.112;8.606;2022-09-29T08:59:57;12.90;99.90
10411;DHT22;5251;52.112;8.606;2022-09-29T09:19:47;13.20;99.90
10411;DHT22;5251;52.112;8.606;2022-09-29T09:24:58;13.30;99.90
10411;DHT22;5251;52.112;8.606;2022-09-29T09:27:32;13.40;99.90
10411;DHT22;5251;52.112;8.606;2022-09-29T09:30:04;13.50;99.90
10411;DHT22;5251;52.112;8.606;2022-09-29T09:32:34;13.50;99.90
10411;DHT22;5251;52.112;8.606;2022-09-29T09:35:24;13.60;99.90
10411;DHT22;5251;52.112;8.606;2022-09-29T09:37:54;13.70;99.90
10411;DHT22;5251;52.112;8.606;2022-09-29T09:40:37;13.70;99.90
10411;DHT22;5251;52.112;8.606;2022-09-29T09:43:11;13.90;99.90
10411;DHT22;5251;52.112;8.606;2022-09-29T09:45:41;14.00;99.90
10411;DHT22;5251;52.112;8.606;2022-09-29T09:50:41;14.40;99.90
10411;DHT22;5251;52.112;8.606;2022-09-29T09:53:35;14.60;99.90
10411;DHT22;5251;52.112;8.606;2022-09-29T09:56:37;14.80;99.90
10411;DHT22;5251;52.112;8.606;2022-09-29T10:01:52;15.30;99.90
10411;DHT22;5251;52.112;8.606;2022-09-29T10:04:18;15.60;99.90
10411;DHT22;5251;52.112;8.606;2022-09-29T10:06:44;15.80;99.90
10411;DHT22;5251;52.112;8.606;2022-09-29T10:09:13;16.10;99.90
10411;DHT22;5251;52.112;8.606;2022-09-29T10:11:41;16.30;99.90
10411;DHT22;5251;52.112;8.606;2022-09-29T10:16:52;16.80;99.90
10411;DHT22;5251;52.112;8.606;2022-09-29T10:19:23;17.00;99.90
10411;DHT22;5251;52.112;8.606;2022-09-29T10:22:13;17.30;99.90
10411;DHT22;5251;52.112;8.606;2022-09-29T10:24:38;17.50;99.90
10411;DHT22;5251;52.112;8.606;2022-09-29T10:27:04;17.60;99.90
10411;DHT22;5251;52.112;8.606;2022-09-29T10:29:37;17.70;99.90
10411;DHT22;5251;52.112;8.606;2022-09-29T10:32:15;17.70;99.90
10411;DHT22;5251;52.112;8.606;2022-09-29T10:34:46;17.80;99.90
10411;DHT22;5251;52.112;8.606;2022-09-29T10:37:28;17.80;99.90
10411;DHT22;5251;52.112;8.606;2022-09-29T10:42:37;17.80;99.90
10411;DHT22;5251;52.112;8.606;2022-09-29T10:47:41;17.80;99.20
10411;DHT22;5251;52.112;8.606;2022-09-29T10:50:22;17.90;99.00
10411;DHT22;5251;52.112;8.606;2022-09-29T10:55:23;17.90;98.10
10411;DHT22;5251;52.112;8.606;2022-09-29T10:57:50;17.90;96.80
10411;DHT22;5251;52.112;8.606;2022-09-29T11:00:27;17.90;98.10
10411;DHT22;5251;52.112;8.606;2022-09-29T11:03:00;17.90;96.80
10411;DHT22;5251;52.112;8.606;2022-09-29T11:05:27;18.00;96.50
10411;DHT22;5251;52.112;8.606;2022-09-29T11:07:53;18.10;95.50
10411;DHT22;5251;52.112;8.606;2022-09-29T11:10:36;18.10;96.00
10411;DHT22;5251;52.112;8.606;2022-09-29T11:15:50;18.20;96.50
10411;DHT22;5251;52.112;8.606;2022-09-29T11:18:21;18.20;96.00
10411;DHT22;5251;52.112;8.606;2022-09-29T11:20:59;18.20;95.70
10411;DHT22;5251;52.112;8.606;2022-09-29T11:23:42;18.30;95.90
10411;DHT22;5251;52.112;8.606;2022-09-29T11:26:15;18.30;96.30
10411;DHT22;5251;52.112;8.606;2022-09-29T11:28:52;18.40;96.30
10411;DHT22;5251;52.112;8.606;2022-09-29T11:31:47;18.40;95.80
10411;DHT22;5251;52.112;8.606;2022-09-29T11:37:16;18.50;95.20
10411;DHT22;5251;52.112;8.606;2022-09-29T11:45:44;18.60;95.40
10411;DHT22;5251;52.112;8.606;2022-09-29T11:54:11;18.40;94.80
10411;DHT22;5251;52.112;8.606;2022-09-29T12:02:27;18.30;95.20
10411;DHT22;5251;52.112;8.606;2022-09-29T12:08:04;18.30;95.50
10411;DHT22;5251;52.112;8.606;2022-09-29T12:15:59;18.30;92.60
10411;DHT22;5251;52.112;8.606;2022-09-29T12:18:39;18.30;91.50
10411;DHT22;5251;52.112;8.606;2022-09-29T12:21:07;18.30;91.60
10411;DHT22;5251;52.112;8.606;2022-09-29T12:23:35;18.20;91.20
10411;DHT22;5251;52.112;8.606;2022-09-29T12:26:14;18.10;91.50
10411;DHT22;5251;52.112;8.606;2022-09-29T12:28:51;18.00;91.90
10411;DHT22;5251;52.112;8.606;2022-09-29T12:31:40;17.90;91.10
10411;DHT22;5251;52.112;8.606;2022-09-29T12:34:16;17.80;91.80
10411;DHT22;5251;52.112;8.606;2022-09-29T12:45:02;17.40;90.40
10411;DHT22;5251;52.112;8.606;2022-09-29T12:53:26;17.30;89.90
10411;DHT22;5251;52.112;8.606;2022-09-29T12:56:42;17.30;89.70
10411;DHT22;5251;52.112;8.606;2022-09-29T13:01:35;17.40;92.00
10411;DHT22;5251;52.112;8.606;2022-09-29T13:09:26;17.80;91.20
10411;DHT22;5251;52.112;8.606;2022-09-29T13:14:53;18.10;91.50
10411;DHT22;5251;52.112;8.606;2022-09-29T13:29:02;18.90;91.50
10411;DHT22;5251;52.112;8.606;2022-09-29T13:31:30;19.00;90.00
10411;DHT22;5251;52.112;8.606;2022-09-29T13:34:01;19.00;89.00
10411;DHT22;5251;52.112;8.606;2022-09-29T13:36:36;19.10;90.00
10411;DHT22;5251;52.112;8.606;2022-09-29T13:39:07;19.10;90.00
10411;DHT22;5251;52.112;8.606;2022-09-29T13:41:42;19.10;87.50
10411;DHT22;5251;52.112;8.606;2022-09-29T13:46:43;19.20;88.60
10411;DHT22;5251;52.112;8.606;2022-09-29T13:54:46;19.30;87.70
10411;DHT22;5251;52.112;8.606;2022-09-29T13:59:43;19.40;82.80
10411;DHT22;5251;52.112;8.606;2022-09-29T14:02:27;19.40;81.60
10411;DHT22;5251;52.112;8.606;2022-09-29T14:04:55;19.30;80.70
10411;DHT22;5251;52.112;8.606;2022-09-29T14:07:46;19.30;81.00
10411;DHT22;5251;52.112;8.606;2022-09-29T14:12:40;19.20;81.40
10411;DHT22;5251;52.112;8.606;2022-09-29T14:15:06;19.10;81.30
10411;DHT22;5251;52.112;8.606;2022-09-29T14:17:36;19.10;81.70
10411;DHT22;5251;52.112;8.606;2022-09-29T14:27:34;18.80;79.30
10411;DHT22;5251;52.112;8.606;2022-09-29T14:32:41;18.70;80.50
10411;DHT22;5251;52.112;8.606;2022-09-29T14:35:32;18.60;79.40
10411;DHT22;5251;52.112;8.606;2022-09-29T14:38:17;18.40;80.20
10411;DHT22;5251;52.112;8.606;2022-09-29T14:43:50;18.20;81.10
10411;DHT22;5251;52.112;8.606;2022-09-29T15:03:18;17.60;82.10
10411;DHT22;5251;52.112;8.606;2022-09-29T15:05:45;17.50;82.40
10411;DHT22;5251;52.112;8.606;2022-09-29T15:08:25;17.50;81.90
10411;DHT22;5251;52.112;8.606;2022-09-29T15:10:52;17.40;81.50
10411;DHT22;5251;52.112;8.606;2022-09-29T15:13:24;17.40;82.10
10411;DHT22;5251;52.112;8.606;2022-09-29T15:16:04;17.30;84.20
10411;DHT22;5251;52.112;8.606;2022-09-29T15:21:36;17.30;84.40
10411;DHT22;5251;52.112;8.606;2022-09-29T15:26:40;17.20;82.00
10411;DHT22;5251;52.112;8.606;2022-09-29T15:29:09;17.20;82.90
10411;DHT22;5251;52.112;8.606;2022-09-29T15:31:38;17.10;83.50
10411;DHT22;5251;52.112;8.606;2022-09-29T15:34:14;17.10;83.90
10411;DHT22;5251;52.112;8.606;2022-09-29T15:36:41;17.00;84.30
10411;DHT22;5251;52.112;8.606;2022-09-29T15:42:00;16.90;84.10
10411;DHT22;5251;52.112;8.606;2022-09-29T15:44:28;16.90;84.30
10411;DHT22;5251;52.112;8.606;2022-09-29T15:46:57;16.80;83.30
10411;DHT22;5251;52.112;8.606;2022-09-29T15:49:24;16.80;84.50
10411;DHT22;5251;52.112;8.606;2022-09-29T15:54:44;16.70;84.10
10411;DHT22;5251;52.112;8.606;2022-09-29T16:03:05;16.60;87.00
10411;DHT22;5251;52.112;8.606;2022-09-29T16:05:35;16.60;86.00
10411;DHT22;5251;52.112;8.606;2022-09-29T16:08:04;16.50;87.10
10411;DHT22;5251;52.112;8.606;2022-09-29T16:10:35;16.50;87.00
10411;DHT22;5251;52.112;8.606;2022-09-29T16:13:04;16.40;87.00
10411;DHT22;5251;52.112;8.606;2022-09-29T16:15:42;16.40;88.50
10411;DHT22;5251;52.112;8.606;2022-09-29T16:18:17;16.30;89.60
10411;DHT22;5251;52.112;8.606;2022-09-29T16:20:45;16.20;89.50
10411;DHT22;5251;52.112;8.606;2022-09-29T16:25:44;16.10;90.60
10411;DHT22;5251;52.112;8.606;2022-09-29T16:28:26;16.00;91.00
10411;DHT22;5251;52.112;8.606;2022-09-29T16:31:02;16.00;91.50
10411;DHT22;5251;52.112;8.606;2022-09-29T16:33:28;15.90;92.00
10411;DHT22;5251;52.112;8.606;2022-09-29T16:36:10;15.80;91.90
10411;DHT22;5251;52.112;8.606;2022-09-29T16:38:43;15.70;91.90
10411;DHT22;5251;52.112;8.606;2022-09-29T16:47:03;15.50;92.90
10411;DHT22;5251;52.112;8.606;2022-09-29T16:49:54;15.40;93.30
10411;DHT22;5251;52.112;8.606;2022-09-29T16:52:23;15.30;93.30
10411;DHT22;5251;52.112;8.606;2022-09-29T16:54:51;15.20;93.40
10411;DHT22;5251;52.112;8.606;2022-09-29T16:59:55;15.00;93.40
10411;DHT22;5251;52.112;8.606;2022-09-29T17:02:22;14.90;93.60
10411;DHT22;5251;52.112;8.606;2022-09-29T17:04:50;14.80;93.90
10411;DHT22;5251;52.112;8.606;2022-09-29T17:07:17;14.80;94.00
10411;DHT22;5251;52.112;8.606;2022-09-29T17:09:47;14.60;94.10
10411;DHT22;5251;52.112;8.606;2022-09-29T17:12:15;14.60;94.30
10411;DHT22;5251;52.112;8.606;2022-09-29T17:14:41;14.50;94.40
10411;DHT22;5251;52.112;8.606;2022-09-29T17:17:14;14.30;94.50
10411;DHT22;5251;52.112;8.606;2022-09-29T17:19:41;14.30;95.00
10411;DHT22;5251;52.112;8.606;2022-09-29T17:22:30;14.20;95.00
10411;DHT22;5251;52.112;8.606;2022-09-29T17:24:57;14.10;95.40
10411;DHT22;5251;52.112;8.606;2022-09-29T17:27:23;14.00;95.60
10411;DHT22;5251;52.112;8.606;2022-09-29T17:30:09;13.90;96.00
10411;DHT22;5251;52.112;8.606;2022-09-29T17:32:34;13.80;96.10
10411;DHT22;5251;52.112;8.606;2022-09-29T17:35:01;13.80;96.40
10411;DHT22;5251;52.112;8.606;2022-09-29T17:37:26;13.70;96.40
10411;DHT22;5251;52.112;8.606;2022-09-29T17:39:52;13.60;96.50
10411;DHT22;5251;52.112;8.606;2022-09-29T17:42:18;13.50;96.60
10411;DHT22;5251;52.112;8.606;2022-09-29T17:44:44;13.40;96.70
10411;DHT22;5251;52.112;8.606;2022-09-29T17:47:14;13.40;96.90
10411;DHT22;5251;52.112;8.606;2022-09-29T17:49:44;13.30;97.10
10411;DHT22;5251;52.112;8.606;2022-09-29T17:52:14;13.20;97.30
10411;DHT22;5251;52.112;8.606;2022-09-29T17:54:41;13.10;97.40
10411;DHT22;5251;52.112;8.606;2022-09-29T17:57:18;13.10;97.70
10411;DHT22;5251;52.112;8.606;2022-09-29T17:59:44;12.90;97.80
10411;DHT22;5251;52.112;8.606;2022-09-29T18:02:12;12.90;98.10
10411;DHT22;5251;52.112;8.606;2022-09-29T18:04:38;12.80;98.30
10411;DHT22;5251;52.112;8.606;2022-09-29T18:07:07;12.80;98.50
10411;DHT22;5251;52.112;8.606;2022-09-29T18:09:33;12.70;98.50
10411;DHT22;5251;52.112;8.606;2022-09-29T18:11:58;12.70;98.70
10411;DHT22;5251;52.112;8.606;2022-09-29T18:14:24;12.60;98.90
10411;DHT22;5251;52.112;8.606;2022-09-29T18:16:49;12.50;98.90
10411;DHT22;5251;52.112;8.606;2022-09-29T18:19:16;12.50;99.10
10411;DHT22;5251;52.112;8.606;2022-09-29T18:21:42;12.40;99.10
10411;DHT22;5251;52.112;8.606;2022-09-29T18:24:07;12.40;99.10
10411;DHT22;5251;52.112;8.606;2022-09-29T18:26:35;12.30;99.20
10411;DHT22;5251;52.112;8.606;2022-09-29T18:29:12;12.20;99.30
10411;DHT22;5251;52.112;8.606;2022-09-29T18:31:38;12.20;99.50
10411;DHT22;5251;52.112;8.606;2022-09-29T18:34:04;12.10;99.50
10411;DHT22;5251;52.112;8.606;2022-09-29T18:36:29;12.00;99.70
10411;DHT22;5251;52.112;8.606;2022-09-29T18:38:55;12.00;99.80
10411;DHT22;5251;52.112;8.606;2022-09-29T18:41:21;11.90;99.90
10411;DHT22;5251;52.112;8.606;2022-09-29T18:43:48;11.90;99.90
10411;DHT22;5251;52.112;8.606;2022-09-29T18:46:14;11.90;99.90
10411;DHT22;5251;52.112;8.606;2022-09-29T18:48:40;11.80;99.90
10411;DHT22;5251;52.112;8.606;2022-09-29T18:51:06;11.70;99.90
10411;DHT22;5251;52.112;8.606;2022-09-29T18:53:32;11.60;99.90
10411;DHT22;5251;52.112;8.606;2022-09-29T18:56:01;11.60;99.90
10411;DHT22;5251;52.112;8.606;2022-09-29T18:58:27;11.50;99.90
10411;DHT22;5251;52.112;8.606;2022-09-29T19:00:54;11.50;99.90
10411;DHT22;5251;52.112;8.606;2022-09-29T19:03:21;11.50;99.90
10411;DHT22;5251;52.112;8.606;2022-09-29T19:05:48;11.40;99.90
10411;DHT22;5251;52.112;8.606;2022-09-29T19:08:15;11.30;99.90
10411;DHT22;5251;52.112;8.606;2022-09-29T19:10:47;11.30;99.90
10411;DHT22;5251;52.112;8.606;2022-09-29T19:13:13;11.20;99.90
10411;DHT22;5251;52.112;8.606;2022-09-29T19:15:41;11.20;99.90
10411;DHT22;5251;52.112;8.606;2022-09-29T19:18:08;11.10;99.90
10411;DHT22;5251;52.112;8.606;2022-09-29T19:20:35;11.10;99.90
10411;DHT22;5251;52.112;8.606;2022-09-29T19:23:01;11.10;99.90
10411;DHT22;5251;52.112;8.606;2022-09-29T19:25:30;11.00;99.90
10411;DHT22;5251;52.112;8.606;2022-09-29T19:27:57;11.00;99.90
10411;DHT22;5251;52.112;8.606;2022-09-29T19:30:24;11.00;99.90
10411;DHT22;5251;52.112;8.606;2022-09-29T19:32:51;10.90;99.90
10411;DHT22;5251;52.112;8.606;2022-09-29T19:35:21;10.90;99.90
10411;DHT22;5251;52.112;8.606;2022-09-29T19:37:47;10.80;99.90
10411;DHT22;5251;52.112;8.606;2022-09-29T19:40:22;10.80;99.90
10411;DHT22;5251;52.112;8.606;2022-09-29T19:42:49;10.70;99.90